sensor_id;sensor_type;location;lat;lon;timestamp;pressure;altitude;pressure_sealevel;temperature;humidity
31005;BME280;17676;52.254;4.490;2023-04-15T00:00:48;100738.19;;;10.86;100.00
31005;BME280;17676;52.254;4.490;2023-04-15T00:03:16;100749.66;;;10.88;100.00
31005;BME280;17676;52.254;4.490;2023-04-15T00:05:42;100738.22;;;10.79;100.00
31005;BME280;17676;52.254;4.490;2023-04-15T00:08:07;100737.56;;;10.77;100.00
31005;BME280;17676;52.254;4.490;2023-04-15T00:10:33;100746.34;;;10.79;100.00
31005;BME280;17676;52.254;4.490;2023-04-15T00:12:59;100739.03;;;10.73;100.00
31005;BME280;17676;52.254;4.490;2023-04-15T00:15:25;100732.00;;;10.59;100.00
31005;BME280;17676;52.254;4.490;2023-04-15T00:17:51;100739.72;;;10.49;100.00
31005;BME280;17676;52.254;4.490;2023-04-15T00:20:17;100736.38;;;10.54;100.00
31005;BME280;17676;52.254;4.490;2023-04-15T00:22:43;100736.00;;;10.50;100.00
31005;BME280;17676;52.254;4.490;2023-04-15T00:25:08;100744.09;;;10.50;100.00
31005;BME280;17676;52.254;4.490;2023-04-15T00:27:34;100738.03;;;10.61;100.00
31005;BME280;17676;52.254;4.490;2023-04-15T00:30:00;100739.28;;;10.72;100.00
31005;BME280;17676;52.254;4.490;2023-04-15T00:32:26;100731.38;;;10.70;100.00
31005;BME280;17676;52.254;4.490;2023-04-15T00:34:51;100733.66;;;10.67;100.00
31005;BME280;17676;52.254;4.490;2023-04-15T00:37:18;100756.97;;;10.74;100.00
31005;BME280;17676;52.254;4.490;2023-04-15T00:39:43;100749.06;;;10.73;100.00
31005;BME280;17676;52.254;4.490;2023-04-15T00:42:09;100748.22;;;10.72;100.00
31005;BME280;17676;52.254;4.490;2023-04-15T00:44:35;100737.44;;;10.59;100.00
31005;BME280;17676;52.254;4.490;2023-04-15T00:47:00;100741.56;;;10.68;100.00
31005;BME280;17676;52.254;4.490;2023-04-15T00:49:29;100748.84;;;10.74;100.00
31005;BME280;17676;52.254;4.490;2023-04-15T00:51:55;100749.88;;;10.73;100.00
31005;BME280;17676;52.254;4.490;2023-04-15T00:54:23;100740.72;;;10.74;100.00
31005;BME280;17676;52.254;4.490;2023-04-15T00:56:49;100736.59;;;10.52;100.00
31005;BME280;17676;52.254;4.490;2023-04-15T00:59:16;100749.28;;;10.58;100.00
31005;BME280;17676;52.254;4.490;2023-04-15T01:01:43;100746.81;;;10.50;100.00
31005;BME280;17676;52.254;4.490;2023-04-15T01:04:09;100757.84;;;10.55;100.00
31005;BME280;17676;52.254;4.490;2023-04-15T01:06:36;100754.47;;;10.53;100.00
31005;BME280;17676;52.254;4.490;2023-04-15T01:09:02;100745.34;;;10.41;100.00
31005;BME280;17676;52.254;4.490;2023-04-15T01:11:28;100737.25;;;10.48;100.00
31005;BME280;17676;52.254;4.490;2023-04-15T01:13:57;100762.81;;;10.45;100.00
31005;BME280;17676;52.254;4.490;2023-04-15T01:16:22;100766.38;;;10.39;100.00
31005;BME280;17676;52.254;4.490;2023-04-15T01:18:48;100762.22;;;10.37;100.00
31005;BME280;17676;52.254;4.490;2023-04-15T01:21:14;100762.44;;;10.29;100.00
31005;BME280;17676;52.254;4.490;2023-04-15T01:23:42;100765.34;;;10.27;100.00
31005;BME280;17676;52.254;4.490;2023-04-15T01:26:08;100769.09;;;10.26;100.00
31005;BME280;17676;52.254;4.490;2023-04-15T01:28:35;100743.50;;;10.16;100.00
31005;BME280;17676;52.254;4.490;2023-04-15T01:31:11;100757.03;;;10.22;100.00
31005;BME280;17676;52.254;4.490;2023-04-15T01:33:39;100748.72;;;10.17;100.00
31005;BME280;17676;52.254;4.490;2023-04-15T01:36:06;100745.38;;;10.15;100.00
31005;BME280;17676;52.254;4.490;2023-04-15T01:38:33;100751.81;;;10.14;100.00
31005;BME280;17676;52.254;4.490;2023-04-15T01:40:58;100747.66;;;10.05;100.00
31005;BME280;17676;52.254;4.490;2023-04-15T01:43:25;100763.25;;;10.16;100.00
31005;BME280;17676;52.254;4.490;2023-04-15T01:45:51;100772.41;;;10.08;100.00
31005;BME280;17676;52.254;4.490;2023-04-15T01:48:17;100763.22;;;10.03;100.00
31005;BME280;17676;52.254;4.490;2023-04-15T01:50:43;100752.00;;;9.93;100.00
31005;BME280;17676;52.254;4.490;2023-04-15T01:53:11;100744.06;;;9.85;100.00
31005;BME280;17676;52.254;4.490;2023-04-15T01:55:36;100752.59;;;9.82;100.00
31005;BME280;17676;52.254;4.490;2023-04-15T01:58:02;100761.94;;;9.86;100.00
31005;BME280;17676;52.254;4.490;2023-04-15T02:00:28;100761.94;;;9.79;100.00
31005;BME280;17676;52.254;4.490;2023-04-15T02:02:54;100758.38;;;9.66;100.00
31005;BME280;17676;52.254;4.490;2023-04-15T02:05:20;100781.47;;;9.75;100.00
31005;BME280;17676;52.254;4.490;2023-04-15T02:07:46;100782.09;;;9.77;100.00
31005;BME280;17676;52.254;4.490;2023-04-15T02:10:12;100781.88;;;9.72;100.00
31005;BME280;17676;52.254;4.490;2023-04-15T02:12:38;100776.81;;;9.49;100.00
31005;BME280;17676;52.254;4.490;2023-04-15T02:15:05;100777.25;;;9.53;100.00
31005;BME280;17676;52.254;4.490;2023-04-15T02:17:33;100768.09;;;9.47;100.00
31005;BME280;17676;52.254;4.490;2023-04-15T02:20:00;100774.31;;;9.48;100.00
31005;BME280;17676;52.254;4.490;2023-04-15T02:22:25;100793.88;;;9.56;100.00
31005;BME280;17676;52.254;4.490;2023-04-15T02:24:51;100785.16;;;9.54;100.00
31005;BME280;17676;52.254;4.490;2023-04-15T02:27:17;100791.84;;;9.65;100.00
31005;BME280;17676;52.254;4.490;2023-04-15T02:29:44;100778.06;;;9.47;100.00
31005;BME280;17676;52.254;4.490;2023-04-15T02:32:13;100780.13;;;9.45;100.00
31005;BME280;17676;52.254;4.490;2023-04-15T02:34:39;100805.34;;;9.65;100.00
31005;BME280;17676;52.254;4.490;2023-04-15T02:37:08;100801.41;;;9.61;100.00
31005;BME280;17676;52.254;4.490;2023-04-15T02:39:34;100801.78;;;9.58;100.00
31005;BME280;17676;52.254;4.490;2023-04-15T02:41:59;100788.47;;;9.50;100.00
31005;BME280;17676;52.254;4.490;2023-04-15T02:44:28;100804.88;;;9.48;100.00
31005;BME280;17676;52.254;4.490;2023-04-15T02:46:54;100811.94;;;9.56;100.00
31005;BME280;17676;52.254;4.490;2023-04-15T02:49:20;100802.34;;;9.40;100.00
31005;BME280;17676;52.254;4.490;2023-04-15T02:51:46;100809.22;;;9.43;100.00
31005;BME280;17676;52.254;4.490;2023-04-15T02:54:17;100821.66;;;9.44;100.00
31005;BME280;17676;52.254;4.490;2023-04-15T02:56:43;100811.47;;;9.33;100.00
31005;BME280;17676;52.254;4.490;2023-04-15T02:59:09;100819.13;;;9.29;100.00
31005;BME280;17676;52.254;4.490;2023-04-15T03:01:34;100817.84;;;9.25;100.00
31005;BME280;17676;52.254;4.490;2023-04-15T03:04:00;100826.22;;;9.30;100.00
31005;BME280;17676;52.254;4.490;2023-04-15T03:06:26;100828.03;;;9.23;100.00
31005;BME280;17676;52.254;4.490;2023-04-15T03:08:52;100822.59;;;9.17;100.00
31005;BME280;17676;52.254;4.490;2023-04-15T03:11:18;100818.63;;;9.13;100.00
31005;BME280;17676;52.254;4.490;2023-04-15T03:13:44;100809.44;;;9.01;100.00
31005;BME280;17676;52.254;4.490;2023-04-15T03:16:10;100816.66;;;8.94;100.00
31005;BME280;17676;52.254;4.490;2023-04-15T03:18:36;100803.34;;;8.92;100.00
31005;BME280;17676;52.254;4.490;2023-04-15T03:21:02;100816.88;;;8.99;100.00
31005;BME280;17676;52.254;4.490;2023-04-15T03:23:27;100802.69;;;8.84;100.00
31005;BME280;17676;52.254;4.490;2023-04-15T03:25:53;100819.66;;;8.78;100.00
31005;BME280;17676;52.254;4.490;2023-04-15T03:28:21;100823.84;;;8.87;100.00
31005;BME280;17676;52.254;4.490;2023-04-15T03:30:46;100813.47;;;8.84;100.00
31005;BME280;17676;52.254;4.490;2023-04-15T03:33:12;100810.66;;;8.71;100.00
31005;BME280;17676;52.254;4.490;2023-04-15T03:35:38;100821.66;;;8.69;100.00
31005;BME280;17676;52.254;4.490;2023-04-15T03:38:03;100813.63;;;8.76;100.00
31005;BME280;17676;52.254;4.490;2023-04-15T03:40:29;100823.19;;;8.78;100.00
31005;BME280;17676;52.254;4.490;2023-04-15T03:42:55;100834.31;;;8.69;100.00
31005;BME280;17676;52.254;4.490;2023-04-15T03:45:21;100838.63;;;8.63;100.00
31005;BME280;17676;52.254;4.490;2023-04-15T03:47:47;100836.78;;;8.64;100.00
31005;BME280;17676;52.254;4.490;2023-04-15T03:50:13;100826.28;;;8.48;100.00
31005;BME280;17676;52.254;4.490;2023-04-15T03:52:39;100838.97;;;8.54;100.00
31005;BME280;17676;52.254;4.490;2023-04-15T03:55:05;100833.09;;;8.44;100.00
31005;BME280;17676;52.254;4.490;2023-04-15T03:57:31;100830.13;;;8.39;100.00
31005;BME280;17676;52.254;4.490;2023-04-15T03:59:56;100831.34;;;8.36;100.00
31005;BME280;17676;52.254;4.490;2023-04-15T04:02:22;100845.94;;;8.42;100.00
31005;BME280;17676;52.254;4.490;2023-04-15T04:04:47;100844.69;;;8.44;100.00
31005;BME280;17676;52.254;4.490;2023-04-15T04:07:17;100850.47;;;8.41;100.00
31005;BME280;17676;52.254;4.490;2023-04-15T04:09:43;100853.78;;;8.37;100.00
31005;BME280;17676;52.254;4.490;2023-04-15T04:12:08;100854.66;;;8.44;100.00
31005;BME280;17676;52.254;4.490;2023-04-15T04:14:35;100855.81;;;8.35;100.00
31005;BME280;17676;52.254;4.490;2023-04-15T04:17:00;100855.56;;;8.30;100.00
31005;BME280;17676;52.254;4.490;2023-04-15T04:19:26;100872.31;;;8.46;100.00
31005;BME280;17676;52.254;4.490;2023-04-15T04:21:51;100865.00;;;8.40;100.00
31005;BME280;17676;52.254;4.490;2023-04-15T04:24:17;100868.66;;;8.33;100.00
31005;BME280;17676;52.254;4.490;2023-04-15T04:26:43;100884.34;;;8.44;100.00
31005;BME280;17676;52.254;4.490;2023-04-15T04:29:08;100883.50;;;8.43;100.00
31005;BME280;17676;52.254;4.490;2023-04-15T04:31:34;100881.22;;;8.47;100.00
31005;BME280;17676;52.254;4.490;2023-04-15T04:34:00;100879.13;;;8.42;100.00
31005;BME280;17676;52.254;4.490;2023-04-15T04:36:25;100889.06;;;8.42;100.00
31005;BME280;17676;52.254;4.490;2023-04-15T04:38:51;100889.84;;;8.36;100.00
31005;BME280;17676;52.254;4.490;2023-04-15T04:41:17;100884.59;;;8.28;100.00
31005;BME280;17676;52.254;4.490;2023-04-15T04:43:42;100903.59;;;8.41;100.00
31005;BME280;17676;52.254;4.490;2023-04-15T04:46:08;100913.09;;;8.37;100.00
31005;BME280;17676;52.254;4.490;2023-04-15T04:48:34;100905.44;;;8.40;100.00
31005;BME280;17676;52.254;4.490;2023-04-15T04:51:00;100903.53;;;8.34;100.00
31005;BME280;17676;52.254;4.490;2023-04-15T04:53:26;100907.44;;;8.32;100.00
31005;BME280;17676;52.254;4.490;2023-04-15T04:55:52;100915.59;;;8.38;100.00
31005;BME280;17676;52.254;4.490;2023-04-15T04:58:18;100928.09;;;8.46;100.00
31005;BME280;17676;52.254;4.490;2023-04-15T05:00:43;100936.88;;;8.48;100.00
31005;BME280;17676;52.254;4.490;2023-04-15T05:03:09;100933.88;;;8.43;100.00
31005;BME280;17676;52.254;4.490;2023-04-15T05:05:35;100948.47;;;8.48;100.00
31005;BME280;17676;52.254;4.490;2023-04-15T05:08:04;100938.78;;;8.33;100.00
31005;BME280;17676;52.254;4.490;2023-04-15T05:10:30;100945.44;;;8.37;100.00
31005;BME280;17676;52.254;4.490;2023-04-15T05:12:56;100943.06;;;8.48;100.00
31005;BME280;17676;52.254;4.490;2023-04-15T05:15:22;100952.63;;;8.51;100.00
31005;BME280;17676;52.254;4.490;2023-04-15T05:17:50;100965.03;;;8.45;100.00
31005;BME280;17676;52.254;4.490;2023-04-15T05:20:16;100982.84;;;8.61;100.00
31005;BME280;17676;52.254;4.490;2023-04-15T05:22:42;100966.41;;;8.56;100.00
31005;BME280;17676;52.254;4.490;2023-04-15T05:25:08;100982.19;;;8.59;100.00
31005;BME280;17676;52.254;4.490;2023-04-15T05:27:34;100980.66;;;8.71;100.00
31005;BME280;17676;52.254;4.490;2023-04-15T05:29:59;100994.41;;;8.76;100.00
31005;BME280;17676;52.254;4.490;2023-04-15T05:32:25;100998.13;;;8.75;100.00
31005;BME280;17676;52.254;4.490;2023-04-15T05:34:51;101006.50;;;8.80;100.00
31005;BME280;17676;52.254;4.490;2023-04-15T05:37:17;101020.03;;;8.86;100.00
31005;BME280;17676;52.254;4.490;2023-04-15T05:39:45;101011.47;;;8.83;100.00
31005;BME280;17676;52.254;4.490;2023-04-15T05:42:11;101022.28;;;8.83;100.00
31005;BME280;17676;52.254;4.490;2023-04-15T05:44:36;101031.53;;;8.95;100.00
31005;BME280;17676;52.254;4.490;2023-04-15T05:47:02;101027.81;;;8.96;100.00
31005;BME280;17676;52.254;4.490;2023-04-15T05:49:28;101040.72;;;9.00;100.00
31005;BME280;17676;52.254;4.490;2023-04-15T05:51:54;101045.81;;;9.10;100.00
31005;BME280;17676;52.254;4.490;2023-04-15T05:54:19;101052.91;;;9.17;100.00
31005;BME280;17676;52.254;4.490;2023-04-15T05:56:47;101050.81;;;9.13;100.00
31005;BME280;17676;52.254;4.490;2023-04-15T05:59:13;101059.16;;;9.18;100.00
31005;BME280;17676;52.254;4.490;2023-04-15T06:01:38;101060.44;;;9.22;100.00
31005;BME280;17676;52.254;4.490;2023-04-15T06:04:04;101083.78;;;9.29;100.00
31005;BME280;17676;52.254;4.490;2023-04-15T06:06:30;101068.53;;;9.43;100.00
31005;BME280;17676;52.254;4.490;2023-04-15T06:08:56;101082.78;;;9.58;100.00
31005;BME280;17676;52.254;4.490;2023-04-15T06:11:22;101096.53;;;9.63;100.00
31005;BME280;17676;52.254;4.490;2023-04-15T06:13:48;101101.47;;;9.53;100.00
31005;BME280;17676;52.254;4.490;2023-04-15T06:16:13;101103.59;;;9.64;100.00
31005;BME280;17676;52.254;4.490;2023-04-15T06:18:39;101117.03;;;9.78;100.00
31005;BME280;17676;52.254;4.490;2023-04-15T06:21:05;101133.69;;;9.82;100.00
31005;BME280;17676;52.254;4.490;2023-04-15T06:23:33;101119.53;;;9.80;100.00
31005;BME280;17676;52.254;4.490;2023-04-15T06:25:59;101138.56;;;9.93;100.00
31005;BME280;17676;52.254;4.490;2023-04-15T06:28:24;101126.09;;;9.98;100.00
31005;BME280;17676;52.254;4.490;2023-04-15T06:30:50;101128.38;;;9.95;100.00
31005;BME280;17676;52.254;4.490;2023-04-15T06:33:16;101131.63;;;10.05;100.00
31005;BME280;17676;52.254;4.490;2023-04-15T06:35:41;101140.84;;;10.17;100.00
31005;BME280;17676;52.254;4.490;2023-04-15T06:38:07;101129.81;;;10.18;100.00
31005;BME280;17676;52.254;4.490;2023-04-15T06:40:33;101135.66;;;10.16;100.00
31005;BME280;17676;52.254;4.490;2023-04-15T06:42:58;101143.63;;;10.30;100.00
31005;BME280;17676;52.254;4.490;2023-04-15T06:45:24;101156.59;;;10.41;100.00
31005;BME280;17676;52.254;4.490;2023-04-15T06:47:50;101163.09;;;10.53;100.00
31005;BME280;17676;52.254;4.490;2023-04-15T06:50:16;101161.63;;;10.51;100.00
31005;BME280;17676;52.254;4.490;2023-04-15T06:52:42;101169.22;;;10.68;100.00
31005;BME280;17676;52.254;4.490;2023-04-15T06:55:08;101156.50;;;10.62;100.00
31005;BME280;17676;52.254;4.490;2023-04-15T06:57:34;101163.28;;;10.92;100.00
31005;BME280;17676;52.254;4.490;2023-04-15T07:00:00;101169.78;;;10.98;100.00
31005;BME280;17676;52.254;4.490;2023-04-15T07:02:26;101178.13;;;11.09;100.00
31005;BME280;17676;52.254;4.490;2023-04-15T07:04:51;101167.69;;;11.86;100.00
31005;BME280;17676;52.254;4.490;2023-04-15T07:07:17;101171.59;;;13.05;100.00
31005;BME280;17676;52.254;4.490;2023-04-15T07:09:43;101179.72;;;13.80;100.00
31005;BME280;17676;52.254;4.490;2023-04-15T07:12:09;101172.16;;;14.31;100.00
31005;BME280;17676;52.254;4.490;2023-04-15T07:14:34;101174.47;;;15.66;100.00
31005;BME280;17676;52.254;4.490;2023-04-15T07:17:01;101159.38;;;16.39;100.00
31005;BME280;17676;52.254;4.490;2023-04-15T07:19:26;101162.22;;;16.21;100.00
31005;BME280;17676;52.254;4.490;2023-04-15T07:21:52;101162.56;;;16.13;100.00
31005;BME280;17676;52.254;4.490;2023-04-15T07:24:18;101169.50;;;17.01;100.00
31005;BME280;17676;52.254;4.490;2023-04-15T07:26:45;101177.00;;;18.06;100.00
31005;BME280;17676;52.254;4.490;2023-04-15T07:29:10;101200.75;;;18.17;100.00
31005;BME280;17676;52.254;4.490;2023-04-15T07:31:36;101192.31;;;18.73;100.00
31005;BME280;17676;52.254;4.490;2023-04-15T07:34:02;101190.03;;;17.54;100.00
31005;BME280;17676;52.254;4.490;2023-04-15T07:36:28;101195.25;;;17.84;100.00
31005;BME280;17676;52.254;4.490;2023-04-15T07:38:54;101208.69;;;18.02;100.00
31005;BME280;17676;52.254;4.490;2023-04-15T07:41:20;101211.47;;;17.74;100.00
31005;BME280;17676;52.254;4.490;2023-04-15T07:43:47;101216.66;;;18.69;100.00
31005;BME280;17676;52.254;4.490;2023-04-15T07:46:13;101221.72;;;17.95;100.00
31005;BME280;17676;52.254;4.490;2023-04-15T07:48:39;101233.03;;;17.98;100.00
31005;BME280;17676;52.254;4.490;2023-04-15T07:51:05;101251.53;;;18.08;100.00
31005;BME280;17676;52.254;4.490;2023-04-15T07:53:33;101253.22;;;18.09;100.00
31005;BME280;17676;52.254;4.490;2023-04-15T07:55:59;101261.31;;;18.04;100.00
31005;BME280;17676;52.254;4.490;2023-04-15T07:58:24;101264.47;;;17.96;100.00
31005;BME280;17676;52.254;4.490;2023-04-15T08:00:50;101260.06;;;17.78;100.00
31005;BME280;17676;52.254;4.490;2023-04-15T08:03:16;101270.84;;;18.79;100.00
31005;BME280;17676;52.254;4.490;2023-04-15T08:05:42;101276.31;;;18.13;100.00
31005;BME280;17676;52.254;4.490;2023-04-15T08:08:08;101282.41;;;18.81;100.00
31005;BME280;17676;52.254;4.490;2023-04-15T08:10:33;101294.56;;;19.45;100.00
31005;BME280;17676;52.254;4.490;2023-04-15T08:12:59;101293.56;;;18.96;100.00
31005;BME280;17676;52.254;4.490;2023-04-15T08:15:25;101303.31;;;18.70;100.00
31005;BME280;17676;52.254;4.490;2023-04-15T08:17:51;101294.44;;;18.80;100.00
31005;BME280;17676;52.254;4.490;2023-04-15T08:20:17;101311.84;;;19.07;100.00
31005;BME280;17676;52.254;4.490;2023-04-15T08:22:43;101308.84;;;19.25;100.00
31005;BME280;17676;52.254;4.490;2023-04-15T08:25:09;101305.56;;;18.90;100.00
31005;BME280;17676;52.254;4.490;2023-04-15T08:27:35;101303.41;;;18.92;100.00
31005;BME280;17676;52.254;4.490;2023-04-15T08:30:01;101322.13;;;18.62;100.00
31005;BME280;17676;52.254;4.490;2023-04-15T08:32:28;101335.50;;;18.75;100.00
31005;BME280;17676;52.254;4.490;2023-04-15T08:34:53;101335.50;;;18.75;100.00
31005;BME280;17676;52.254;4.490;2023-04-15T08:37:21;101323.06;;;17.95;100.00
31005;BME280;17676;52.254;4.490;2023-04-15T08:39:47;101341.59;;;18.77;100.00
31005;BME280;17676;52.254;4.490;2023-04-15T08:42:17;101321.63;;;19.58;100.00
31005;BME280;17676;52.254;4.490;2023-04-15T08:44:45;101342.88;;;19.24;100.00
31005;BME280;17676;52.254;4.490;2023-04-15T08:47:12;101326.22;;;19.95;100.00
31005;BME280;17676;52.254;4.490;2023-04-15T08:49:42;101357.47;;;20.37;100.00
31005;BME280;17676;52.254;4.490;2023-04-15T08:52:07;101348.22;;;20.17;100.00
31005;BME280;17676;52.254;4.490;2023-04-15T08:54:34;101349.72;;;19.43;100.00
31005;BME280;17676;52.254;4.490;2023-04-15T08:57:00;101351.25;;;19.17;100.00
31005;BME280;17676;52.254;4.490;2023-04-15T08:59:28;101353.75;;;19.36;100.00
31005;BME280;17676;52.254;4.490;2023-04-15T09:02:01;101346.47;;;20.37;100.00
31005;BME280;17676;52.254;4.490;2023-04-15T09:04:27;101368.00;;;19.97;100.00
31005;BME280;17676;52.254;4.490;2023-04-15T09:06:53;101374.91;;;20.21;100.00
31005;BME280;17676;52.254;4.490;2023-04-15T09:09:18;101361.66;;;19.32;100.00
31005;BME280;17676;52.254;4.490;2023-04-15T09:11:44;101386.31;;;18.21;100.00
31005;BME280;17676;52.254;4.490;2023-04-15T09:14:09;101366.59;;;19.30;100.00
31005;BME280;17676;52.254;4.490;2023-04-15T09:17:03;101385.13;;;19.61;100.00
31005;BME280;17676;52.254;4.490;2023-04-15T09:19:30;101367.59;;;18.58;100.00
31005;BME280;17676;52.254;4.490;2023-04-15T09:21:59;101381.81;;;19.59;100.00
31005;BME280;17676;52.254;4.490;2023-04-15T09:24:34;101389.13;;;19.70;100.00
31005;BME280;17676;52.254;4.490;2023-04-15T09:27:02;101395.97;;;19.51;100.00
31005;BME280;17676;52.254;4.490;2023-04-15T09:29:27;101385.53;;;19.15;100.00
31005;BME280;17676;52.254;4.490;2023-04-15T09:32:18;101391.84;;;19.70;100.00
31005;BME280;17676;52.254;4.490;2023-04-15T09:34:45;101388.50;;;19.47;100.00
31005;BME280;17676;52.254;4.490;2023-04-15T09:37:11;101419.16;;;19.98;100.00
31005;BME280;17676;52.254;4.490;2023-04-15T09:39:47;101393.63;;;20.03;100.00
31005;BME280;17676;52.254;4.490;2023-04-15T09:42:14;101415.91;;;20.49;100.00
31005;BME280;17676;52.254;4.490;2023-04-15T09:44:41;101424.22;;;19.68;100.00
31005;BME280;17676;52.254;4.490;2023-04-15T09:47:07;101428.66;;;20.34;100.00
31005;BME280;17676;52.254;4.490;2023-04-15T09:49:33;101425.81;;;20.02;100.00
31005;BME280;17676;52.254;4.490;2023-04-15T09:52:00;101422.00;;;19.87;100.00
31005;BME280;17676;52.254;4.490;2023-04-15T09:54:33;101416.09;;;20.69;100.00
31005;BME280;17676;52.254;4.490;2023-04-15T09:57:04;101420.38;;;20.29;100.00
31005;BME280;17676;52.254;4.490;2023-04-15T09:59:30;101419.06;;;19.72;100.00
31005;BME280;17676;52.254;4.490;2023-04-15T10:01:56;101433.72;;;20.20;100.00
31005;BME280;17676;52.254;4.490;2023-04-15T10:04:23;101423.25;;;19.58;100.00
31005;BME280;17676;52.254;4.490;2023-04-15T10:06:49;101438.22;;;20.26;100.00
31005;BME280;17676;52.254;4.490;2023-04-15T10:09:18;101443.31;;;20.39;100.00
31005;BME280;17676;52.254;4.490;2023-04-15T10:11:44;101442.44;;;20.60;100.00
31005;BME280;17676;52.254;4.490;2023-04-15T10:14:12;101462.63;;;20.97;100.00
31005;BME280;17676;52.254;4.490;2023-04-15T10:16:40;101446.56;;;20.36;100.00
31005;BME280;17676;52.254;4.490;2023-04-15T10:19:10;101446.78;;;20.56;100.00
31005;BME280;17676;52.254;4.490;2023-04-15T10:21:36;101460.63;;;19.97;100.00
31005;BME280;17676;52.254;4.490;2023-04-15T10:24:02;101443.59;;;20.16;100.00
31005;BME280;17676;52.254;4.490;2023-04-15T10:26:28;101457.06;;;19.25;100.00
31005;BME280;17676;52.254;4.490;2023-04-15T10:28:54;101468.75;;;20.08;100.00
31005;BME280;17676;52.254;4.490;2023-04-15T10:31:21;101476.66;;;19.67;100.00
31005;BME280;17676;52.254;4.490;2023-04-15T10:33:48;101462.22;;;19.21;100.00
31005;BME280;17676;52.254;4.490;2023-04-15T10:36:14;101464.56;;;18.40;100.00
31005;BME280;17676;52.254;4.490;2023-04-15T10:38:44;101464.09;;;18.71;100.00
31005;BME280;17676;52.254;4.490;2023-04-15T10:41:24;101454.22;;;18.87;100.00
31005;BME280;17676;52.254;4.490;2023-04-15T10:44:04;101441.72;;;18.35;100.00
31005;BME280;17676;52.254;4.490;2023-04-15T10:46:39;101473.69;;;19.02;100.00
31005;BME280;17676;52.254;4.490;2023-04-15T10:51:43;101460.13;;;19.45;100.00
31005;BME280;17676;52.254;4.490;2023-04-15T10:54:15;101466.16;;;19.80;100.00
31005;BME280;17676;52.254;4.490;2023-04-15T10:56:44;101482.47;;;20.46;99.13
31005;BME280;17676;52.254;4.490;2023-04-15T10:59:10;101467.84;;;18.98;100.00
31005;BME280;17676;52.254;4.490;2023-04-15T11:02:14;101482.53;;;18.48;100.00
31005;BME280;17676;52.254;4.490;2023-04-15T11:04:56;101464.63;;;18.85;100.00
31005;BME280;17676;52.254;4.490;2023-04-15T11:07:46;101482.09;;;19.45;100.00
31005;BME280;17676;52.254;4.490;2023-04-15T11:12:40;101472.06;;;20.53;100.00
31005;BME280;17676;52.254;4.490;2023-04-15T11:15:40;101492.94;;;19.90;100.00
31005;BME280;17676;52.254;4.490;2023-04-15T11:18:20;101477.69;;;19.11;100.00
31005;BME280;17676;52.254;4.490;2023-04-15T11:20:53;101489.63;;;18.88;100.00
31005;BME280;17676;52.254;4.490;2023-04-15T11:23:41;101499.94;;;18.02;100.00
31005;BME280;17676;52.254;4.490;2023-04-15T11:26:11;101499.56;;;17.30;100.00
31005;BME280;17676;52.254;4.490;2023-04-15T11:28:39;101491.75;;;17.45;100.00
31005;BME280;17676;52.254;4.490;2023-04-15T11:31:14;101481.75;;;17.85;100.00
31005;BME280;17676;52.254;4.490;2023-04-15T11:36:18;101498.53;;;17.77;100.00
31005;BME280;17676;52.254;4.490;2023-04-15T11:38:46;101523.00;;;16.85;100.00
31005;BME280;17676;52.254;4.490;2023-04-15T11:41:12;101506.13;;;16.88;100.00
31005;BME280;17676;52.254;4.490;2023-04-15T11:43:37;101526.53;;;17.56;100.00
31005;BME280;17676;52.254;4.490;2023-04-15T11:46:04;101534.44;;;17.34;100.00
31005;BME280;17676;52.254;4.490;2023-04-15T11:48:35;101522.19;;;18.06;100.00
31005;BME280;17676;52.254;4.490;2023-04-15T11:51:05;101522.81;;;17.62;100.00
31005;BME280;17676;52.254;4.490;2023-04-15T11:53:42;101526.53;;;17.56;100.00
31005;BME280;17676;52.254;4.490;2023-04-15T11:56:09;101545.88;;;17.02;100.00
31005;BME280;17676;52.254;4.490;2023-04-15T11:58:36;101552.44;;;17.12;100.00
31005;BME280;17676;52.254;4.490;2023-04-15T12:01:04;101548.19;;;16.87;100.00
31005;BME280;17676;52.254;4.490;2023-04-15T12:03:37;101540.22;;;17.90;100.00
31005;BME280;17676;52.254;4.490;2023-04-15T12:09:02;101561.03;;;18.14;100.00
31005;BME280;17676;52.254;4.490;2023-04-15T12:11:30;101566.50;;;18.26;100.00
31005;BME280;17676;52.254;4.490;2023-04-15T12:14:10;101548.97;;;18.27;100.00
31005;BME280;17676;52.254;4.490;2023-04-15T12:17:03;101573.94;;;17.38;100.00
31005;BME280;17676;52.254;4.490;2023-04-15T12:19:40;101562.19;;;17.08;100.00
31005;BME280;17676;52.254;4.490;2023-04-15T12:22:11;101571.66;;;17.35;100.00
31005;BME280;17676;52.254;4.490;2023-04-15T12:24:39;101588.88;;;17.54;100.00
31005;BME280;17676;52.254;4.490;2023-04-15T12:27:09;101591.63;;;16.95;100.00
31005;BME280;17676;52.254;4.490;2023-04-15T12:29:37;101587.25;;;16.22;100.00
31005;BME280;17676;52.254;4.490;2023-04-15T12:32:10;101607.84;;;15.57;100.00
31005;BME280;17676;52.254;4.490;2023-04-15T12:34:49;101604.28;;;15.26;100.00
31005;BME280;17676;52.254;4.490;2023-04-15T12:37:16;101610.59;;;15.20;100.00
31005;BME280;17676;52.254;4.490;2023-04-15T12:39:43;101604.16;;;15.70;100.00
31005;BME280;17676;52.254;4.490;2023-04-15T12:42:10;101600.50;;;15.82;100.00
31005;BME280;17676;52.254;4.490;2023-04-15T12:44:38;101631.56;;;15.57;100.00
31005;BME280;17676;52.254;4.490;2023-04-15T12:47:07;101624.56;;;15.92;100.00
31005;BME280;17676;52.254;4.490;2023-04-15T12:49:34;101632.88;;;15.79;100.00
31005;BME280;17676;52.254;4.490;2023-04-15T12:52:00;101638.88;;;15.87;100.00
31005;BME280;17676;52.254;4.490;2023-04-15T12:54:27;101639.91;;;15.68;100.00